Time;durP1;ratioP1;P1;durP2;ratioP2;P2;SDS_P1;SDS_P2;PMS_P1;PMS_P2;Temp;Humidity;BMP_temperature;BMP_pressure;BME280_temperature;BME280_humidity;BME280_pressure;Samples;Min_cycle;Max_cycle;Signal;HPM_P1;HPM_P2
2022/03/07 00:01:26;;;;;;;34.40;19.40;;;;;;;-1.28;58.17;101062.16;84533;1333;22757;-72
2022/03/07 00:03:40;;;;;;;33.20;18.40;;;;;;;-1.28;58.35;101064.05;84558;1331;22617;-72
2022/03/07 00:05:53;;;;;;;35.70;19.10;;;;;;;-1.29;58.32;101065.91;84619;1330;23893;-82
2022/03/07 00:08:05;;;;;;;28.60;17.00;;;;;;;-1.30;58.60;101064.17;84587;1333;24243;-82
2022/03/07 00:10:14;;;;;;;29.60;17.40;;;;;;;-1.29;58.71;101061.61;84572;1329;25297;-81
2022/03/07 00:12:23;;;;;;;26.00;17.30;;;;;;;-1.27;58.74;101059.27;84593;1329;26550;-81
2022/03/07 00:14:32;;;;;;;31.40;18.00;;;;;;;-1.26;58.52;101056.56;84579;1328;22903;-72
2022/03/07 00:16:41;;;;;;;28.10;18.00;;;;;;;-1.26;58.63;101051.60;84572;1330;25273;-72
2022/03/07 00:18:50;;;;;;;32.00;18.40;;;;;;;-1.26;58.59;101045.44;84540;1330;22620;-72
2022/03/07 00:20:59;;;;;;;31.40;18.40;;;;;;;-1.25;58.77;101050.58;84579;1327;22698;-82
2022/03/07 00:23:11;;;;;;;37.70;18.10;;;;;;;-1.25;59.08;101051.95;84541;1332;22615;-81
2022/03/07 00:25:23;;;;;;;31.10;19.20;;;;;;;-1.27;59.05;101055.16;84556;1330;23921;-82
2022/03/07 00:27:35;;;;;;;28.50;17.20;;;;;;;-1.28;59.32;101059.94;84536;1331;23793;-82
2022/03/07 00:29:44;;;;;;;31.90;17.60;;;;;;;-1.27;59.13;101062.17;84555;1334;25258;-72
2022/03/07 00:31:56;;;;;;;27.20;18.50;;;;;;;-1.28;59.34;101060.98;84526;1331;22580;-72
2022/03/07 00:34:06;;;;;;;27.10;16.90;;;;;;;-1.26;59.41;101062.38;84600;1329;22890;-72
2022/03/07 00:36:15;;;;;;;27.50;17.00;;;;;;;-1.23;59.31;101062.79;84539;1332;22576;-82
2022/03/07 00:38:29;;;;;;;26.40;17.30;;;;;;;-1.19;59.15;101065.27;84520;1328;22578;-82
2022/03/07 00:40:38;;;;;;;27.80;17.30;;;;;;;-1.15;59.17;101067.91;84538;1331;23921;-72
2022/03/07 00:42:47;;;;;;;35.90;18.50;;;;;;;-1.12;59.30;101066.62;84565;1330;22587;-72
2022/03/07 00:44:57;;;;;;;30.30;17.50;;;;;;;-1.08;59.34;101065.66;84571;1330;22943;-72
2022/03/07 00:47:06;;;;;;;34.10;18.40;;;;;;;-1.06;59.14;101067.59;84589;1331;22586;-72
2022/03/07 00:49:15;;;;;;;25.50;17.00;;;;;;;-1.06;59.23;101059.72;84549;1331;25313;-81
2022/03/07 00:51:25;;;;;;;30.40;17.40;;;;;;;-1.06;59.26;101058.52;84532;1333;22828;-82
2022/03/07 00:53:37;;;;;;;35.00;16.20;;;;;;;-1.05;58.87;101056.46;84550;1330;22632;-82
2022/03/07 00:55:46;;;;;;;27.20;16.30;;;;;;;-1.07;58.79;101056.27;84553;1332;25327;-82
2022/03/07 00:57:57;;;;;;;28.80;16.70;;;;;;;-1.10;58.95;101055.87;84605;1329;22776;-83
2022/03/07 01:00:10;;;;;;;36.10;18.60;;;;;;;-1.12;58.65;101050.02;84613;1329;23857;-81
2022/03/07 01:02:19;;;;;;;33.30;18.40;;;;;;;-1.14;58.79;101046.71;84605;1330;25257;-81
2022/03/07 01:04:28;;;;;;;30.30;18.40;;;;;;;-1.15;58.86;101048.05;83924;1324;1003586;-83
2022/03/07 01:06:39;;;;;;;32.50;18.90;;;;;;;-1.16;58.84;101045.80;84626;1331;22597;-82
2022/03/07 01:08:49;;;;;;;28.80;17.00;;;;;;;-1.17;59.01;101042.89;84561;1327;22601;-82
2022/03/07 01:10:58;;;;;;;31.40;16.30;;;;;;;-1.17;59.03;101035.35;84534;1328;22594;-72
2022/03/07 01:13:07;;;;;;;32.10;16.90;;;;;;;-1.16;58.97;101032.80;83847;1330;1003322;-73
2022/03/07 01:15:20;;;;;;;33.50;17.20;;;;;;;-1.17;59.16;101025.23;84564;1331;22538;-73
2022/03/07 01:17:29;;;;;;;31.10;17.80;;;;;;;-1.17;59.07;101024.73;84552;1332;22586;-73
2022/03/07 01:19:39;;;;;;;30.60;16.00;;;;;;;-1.18;59.17;101020.60;84633;1329;23041;-74
2022/03/07 01:21:49;;;;;;;27.60;16.30;;;;;;;-1.18;59.05;101016.17;84571;1329;24403;-73
2022/03/07 01:24:00;;;;;;;;;;;;;;;-1.18;59.06;101016.51;83830;1330;1003442;-72
2022/03/07 01:26:12;;;;;;;28.10;15.20;;;;;;;-1.19;59.25;101019.03;84618;1329;22713;-82
2022/03/07 01:28:22;;;;;;;25.20;14.90;;;;;;;-1.20;59.43;101019.36;84624;1327;22687;-82
2022/03/07 01:30:31;;;;;;;21.70;13.90;;;;;;;-1.20;59.19;101022.09;84684;1330;22598;-82
2022/03/07 01:32:40;;;;;;;24.40;14.30;;;;;;;-1.20;59.21;101021.41;84662;1329;22588;-82
2022/03/07 01:34:50;;;;;;;32.30;16.30;;;;;;;-1.22;59.08;101021.21;83851;1332;1003421;-72
2022/03/07 01:36:59;;;;;;;25.60;15.40;;;;;;;-1.23;59.22;101018.45;83844;1330;1003475;-72
2022/03/07 01:39:09;;;;;;;25.80;14.10;;;;;;;-1.24;59.44;101006.77;84534;1331;23798;-72
2022/03/07 01:41:18;;;;;;;24.90;14.00;;;;;;;-1.23;59.48;101005.42;84544;1334;25294;-82
2022/03/07 01:43:30;;;;;;;26.90;14.40;;;;;;;-1.24;59.60;101007.13;84564;1330;22707;-81
2022/03/07 01:45:42;;;;;;;20.20;14.30;;;;;;;-1.24;59.19;101011.05;84564;1331;22715;-82
2022/03/07 01:47:55;;;;;;;26.90;14.60;;;;;;;-1.26;59.23;101014.28;84604;1329;22594;-80
2022/03/07 01:50:04;;;;;;;28.90;16.60;;;;;;;-1.28;59.34;101010.48;84625;1329;22646;-73
2022/03/07 01:52:15;;;;;;;28.90;16.40;;;;;;;-1.29;59.58;101013.52;84369;1330;330710;-72
2022/03/07 01:54:24;;;;;;;28.30;15.30;;;;;;;-1.31;59.38;101014.02;84559;1332;23692;-82
2022/03/07 01:56:34;;;;;;;23.60;14.80;;;;;;;-1.32;59.51;101018.09;84555;1331;22749;-82
2022/03/07 01:58:47;;;;;;;23.90;14.80;;;;;;;-1.34;59.39;101017.36;84595;1329;22612;-83
2022/03/07 02:00:57;;;;;;;24.20;14.50;;;;;;;-1.34;59.46;101012.91;84579;1332;22618;-80
2022/03/07 02:03:09;;;;;;;27.10;14.80;;;;;;;-1.36;59.40;101008.77;84501;1332;22855;-83
2022/03/07 02:05:18;;;;;;;25.50;14.10;;;;;;;-1.37;59.32;101007.03;84595;1330;23918;-73
2022/03/07 02:07:27;;;;;;;24.60;13.00;;;;;;;-1.37;59.27;101005.67;83841;1323;1003064;-74
2022/03/07 02:09:37;;;;;;;18.90;12.30;;;;;;;-1.38;59.46;101008.20;84540;1323;22623;-82
2022/03/07 02:11:49;;;;;;;20.70;11.80;;;;;;;-1.38;59.50;100997.09;84548;1331;22583;-83
2022/03/07 02:13:59;;;;;;;18.40;11.00;;;;;;;-1.37;59.57;100997.30;84555;1335;25272;-82
2022/03/07 02:16:09;;;;;;;21.50;12.50;;;;;;;-1.37;59.63;100996.45;83898;1324;1003257;-72
2022/03/07 02:18:20;;;;;;;21.70;11.90;;;;;;;-1.36;59.61;100995.94;83879;1329;1003143;-73
2022/03/07 02:20:28;;;;;;;15.40;10.80;;;;;;;-1.34;59.70;100995.27;83844;1332;1002526;-80
2022/03/07 02:22:40;;;;;;;20.90;12.70;;;;;;;-1.34;59.81;101000.09;84582;1325;22937;-83
2022/03/07 02:24:49;;;;;;;20.60;11.30;;;;;;;-1.33;59.51;100997.38;84637;1330;23975;-82
2022/03/07 02:27:04;;;;;;;20.40;11.80;;;;;;;-1.33;59.42;100992.73;84567;1329;22615;-82
2022/03/07 02:29:16;;;;;;;19.60;11.80;;;;;;;-1.33;59.48;100993.77;83850;1331;1003875;-74
2022/03/07 02:31:25;;;;;;;19.70;11.20;;;;;;;-1.32;59.33;100989.68;84523;1329;22599;-73
2022/03/07 02:33:35;;;;;;;19.10;12.50;;;;;;;-1.31;59.55;100982.33;84608;1328;22609;-73
2022/03/07 02:35:44;;;;;;;15.80;10.30;;;;;;;-1.31;59.65;100978.58;84658;1329;22612;-83
2022/03/07 02:37:55;;;;;;;18.30;10.80;;;;;;;-1.31;59.63;100972.23;84592;1330;22850;-83
2022/03/07 02:40:05;;;;;;;18.50;11.80;;;;;;;-1.31;59.78;100970.20;84596;1329;22573;-83
2022/03/07 02:42:14;;;;;;;16.70;9.80;;;;;;;-1.30;59.71;100970.72;84681;1324;22596;-83
2022/03/07 02:44:24;;;;;;;14.80;10.20;;;;;;;-1.29;59.66;100972.80;84583;1329;23975;-73
2022/03/07 02:46:37;;;;;;;19.10;11.60;;;;;;;-1.28;59.87;100971.11;83881;1330;1002619;-73
2022/03/07 02:48:46;;;;;;;17.50;9.90;;;;;;;-1.27;59.76;100970.96;84593;1327;22599;-73
2022/03/07 02:50:58;;;;;;;17.80;10.40;;;;;;;-1.26;59.94;100963.10;84667;1329;24023;-72
2022/03/07 02:53:07;;;;;;;18.10;10.30;;;;;;;-1.25;59.84;100964.31;84262;1329;1003140;-73
2022/03/07 02:55:18;;;;;;;22.90;10.80;;;;;;;-1.24;59.70;100966.05;84604;1329;22602;-73
2022/03/07 02:57:28;;;;;;;15.40;9.40;;;;;;;-1.23;59.99;100963.00;84632;1330;22616;-73
2022/03/07 02:59:37;;;;;;;17.50;10.70;;;;;;;-1.21;59.91;100962.00;84660;1328;24396;-81
2022/03/07 03:01:47;;;;;;;18.60;10.20;;;;;;;-1.18;60.01;100964.29;84640;1330;22587;-82
2022/03/07 03:03:57;;;;;;;15.80;9.50;;;;;;;-1.15;59.98;100968.96;84666;1324;22776;-82
2022/03/07 03:06:06;;;;;;;18.60;10.90;;;;;;;-1.12;60.01;100966.45;84587;1329;22811;-81
2022/03/07 03:08:16;;;;;;;14.40;9.90;;;;;;;-1.10;60.10;100963.06;84590;1329;23993;-82
2022/03/07 03:10:26;;;;;;;16.50;9.00;;;;;;;-1.07;60.11;100964.14;84613;1329;22845;-82
2022/03/07 03:12:34;;;;;;;16.40;10.70;;;;;;;-1.05;60.18;100968.27;84644;1328;22825;-81
2022/03/07 03:14:46;;;;;;;12.30;8.80;;;;;;;-1.05;59.95;100964.02;84590;1329;25286;-81
2022/03/07 03:16:55;;;;;;;11.50;8.60;;;;;;;-1.03;60.17;100963.53;84666;1328;22720;-82
2022/03/07 03:19:07;;;;;;;11.40;8.20;;;;;;;-1.02;60.02;100961.49;84598;1329;23931;-82
2022/03/07 03:21:17;;;;;;;14.70;8.20;;;;;;;-1.04;59.85;100968.83;84664;1326;22593;-82
2022/03/07 03:23:30;;;;;;;15.90;8.90;;;;;;;-1.05;59.66;100965.89;83860;1329;1003868;-82
2022/03/07 03:25:39;;;;;;;10.00;7.00;;;;;;;-1.08;59.82;100968.25;84696;1330;22901;-73
2022/03/07 03:27:51;;;;;;;12.10;7.60;;;;;;;-1.08;60.34;100965.84;84641;1329;22667;-73
2022/03/07 03:30:00;;;;;;;9.60;7.50;;;;;;;-1.11;60.25;100969.21;84588;1330;22589;-82
2022/03/07 03:32:12;;;;;;;13.00;7.60;;;;;;;-1.11;60.33;100972.80;83947;1329;1003178;-82
2022/03/07 03:34:21;;;;;;;12.50;7.50;;;;;;;-1.13;60.18;100970.38;84664;1325;22635;-72
2022/03/07 03:36:32;;;;;;;12.00;7.80;;;;;;;-1.14;60.17;100968.80;84588;1330;24409;-73
2022/03/07 03:38:45;;;;;;;15.20;8.40;;;;;;;-1.15;60.16;100966.90;84674;1321;22769;-72
2022/03/07 03:40:54;;;;;;;11.90;7.30;;;;;;;-1.16;60.27;100963.46;84588;1329;22583;-71
2022/03/07 03:43:03;;;;;;;;;;;;;;;-1.18;60.35;100959.48;84560;1330;23868;-72
2022/03/07 03:45:13;;;;;;;10.70;7.30;;;;;;;-1.23;60.55;100961.45;84551;1330;22606;-80
2022/03/07 03:47:23;;;;;;;11.90;7.80;;;;;;;-1.25;60.45;100959.00;83889;1333;1003011;-80
2022/03/07 03:49:32;;;;;;;11.70;8.30;;;;;;;-1.29;60.63;100958.59;84589;1330;22599;-82
2022/03/07 03:51:44;;;;;;;12.60;8.40;;;;;;;-1.33;60.75;100960.74;84663;1330;25974;-81
2022/03/07 03:53:53;;;;;;;13.60;8.60;;;;;;;-1.36;60.74;100959.83;84557;1329;22581;-82
2022/03/07 03:56:02;;;;;;;12.50;8.50;;;;;;;-1.40;60.69;100957.16;84646;1329;23905;-82
2022/03/07 03:58:11;;;;;;;12.30;7.80;;;;;;;-1.44;60.81;100957.61;83980;1328;1003878;-81
2022/03/07 04:00:23;;;;;;;10.00;8.50;;;;;;;-1.47;61.03;100951.73;83988;1326;1003853;-72
2022/03/07 04:02:33;;;;;;;10.90;7.90;;;;;;;-1.51;61.26;100955.41;83812;1330;1003357;-72
2022/03/07 04:04:43;;;;;;;15.40;8.80;;;;;;;-1.56;61.29;100952.40;84611;1329;22602;-81
2022/03/07 04:06:53;;;;;;;14.50;7.60;;;;;;;-1.60;61.45;100953.02;84578;1329;25335;-81
2022/03/07 04:09:18;;;;;;;13.60;8.60;;;;;;;-1.64;61.45;100952.92;84629;1330;22706;-82
2022/03/07 04:11:28;;;;;;;11.60;8.20;;;;;;;-1.68;61.64;100954.02;83949;1324;1003916;-73
2022/03/07 04:13:40;;;;;;;16.30;8.80;;;;;;;-1.72;61.67;100956.85;84567;1329;22553;-72
2022/03/07 04:15:50;;;;;;;20.20;8.20;;;;;;;-1.77;61.96;100957.43;84587;1330;23934;-73
2022/03/07 04:18:00;;;;;;;10.50;7.80;;;;;;;-1.80;62.21;100957.70;84595;1329;22612;-72
2022/03/07 04:20:14;;;;;;;13.80;8.20;;;;;;;-1.81;62.32;100954.44;84585;1330;22816;-82
2022/03/07 04:22:23;;;;;;;14.50;7.70;;;;;;;-1.84;62.31;100957.63;84594;1329;22594;-82
2022/03/07 04:24:36;;;;;;;13.10;8.30;;;;;;;-1.89;62.43;100950.16;84678;1329;22553;-82
2022/03/07 04:26:46;;;;;;;13.50;8.30;;;;;;;-1.93;62.67;100953.14;83942;1328;1002932;-82
2022/03/07 04:28:55;;;;;;;11.70;7.80;;;;;;;-1.98;62.62;100952.52;84654;1328;25434;-82
2022/03/07 04:31:07;;;;;;;12.20;8.70;;;;;;;-2.05;62.92;100953.05;84564;1330;22715;-82
2022/03/07 04:33:17;;;;;;;12.10;8.20;;;;;;;-2.11;63.24;100957.70;84570;1331;24307;-81
2022/03/07 04:35:26;;;;;;;14.40;9.10;;;;;;;-2.17;63.26;100956.55;84607;1329;22697;-73
2022/03/07 04:37:40;;;;;;;14.20;9.00;;;;;;;-2.22;63.48;100957.95;84576;1331;22633;-72
2022/03/07 04:39:50;;;;;;;14.70;9.00;;;;;;;-2.26;63.72;100954.11;84595;1330;22610;-81
2022/03/07 04:41:59;;;;;;;11.70;8.50;;;;;;;-2.29;63.76;100951.98;84678;1328;22607;-81
2022/03/07 04:44:09;;;;;;;12.10;8.20;;;;;;;-2.31;64.04;100949.55;84653;1324;22691;-81
2022/03/07 04:46:19;;;;;;;16.70;9.90;;;;;;;-2.35;64.18;100953.73;84628;1330;22622;-81
2022/03/07 04:48:28;;;;;;;13.10;9.20;;;;;;;-2.38;64.33;100951.60;83880;1331;1003021;-81
2022/03/07 04:50:40;;;;;;;13.90;9.30;;;;;;;-2.40;64.36;100952.92;83929;1329;1002758;-72
2022/03/07 04:52:49;;;;;;;18.10;9.40;;;;;;;-2.43;64.60;100953.70;84633;1329;22593;-72
2022/03/07 04:54:58;;;;;;;11.90;9.20;;;;;;;-2.45;64.73;100950.77;83884;1329;1003386;-73
2022/03/07 04:57:08;;;;;;;14.20;10.00;;;;;;;-2.46;64.79;100948.02;84642;1330;22988;-72
2022/03/07 04:59:17;;;;;;;15.30;9.80;;;;;;;-2.48;64.97;100950.52;84612;1328;22621;-81
2022/03/07 05:01:29;;;;;;;20.00;9.70;;;;;;;-2.47;65.18;100948.14;84682;1325;22589;-82
2022/03/07 05:03:38;;;;;;;13.60;8.80;;;;;;;-2.47;65.16;100944.38;84614;1329;23101;-82
2022/03/07 05:05:48;;;;;;;15.60;9.70;;;;;;;-2.50;65.30;100945.36;83894;1333;1003211;-81
2022/03/07 05:07:56;;;;;;;20.20;11.10;;;;;;;-2.50;65.42;100949.27;84588;1330;23515;-81
2022/03/07 05:10:07;;;;;;;16.40;10.30;;;;;;;-2.49;65.48;100945.71;83887;1333;1003796;-71
2022/03/07 05:12:19;;;;;;;18.80;11.00;;;;;;;-2.48;65.61;100938.38;84639;1330;22730;-72
2022/03/07 05:14:28;;;;;;;21.00;11.00;;;;;;;-2.46;65.77;100936.74;84683;1325;25586;-81
2022/03/07 05:16:37;;;;;;;18.60;11.30;;;;;;;-2.45;65.80;100939.67;83916;1321;1002931;-81
2022/03/07 05:18:46;;;;;;;15.70;10.30;;;;;;;-2.43;65.77;100940.90;84679;1329;24249;-81
2022/03/07 05:20:57;;;;;;;23.50;12.20;;;;;;;-2.40;65.90;100942.85;84641;1330;22578;-81
2022/03/07 05:23:09;;;;;;;18.60;11.90;;;;;;;-2.40;65.96;100937.22;84675;1324;22586;-81
2022/03/07 05:25:20;;;;;;;20.00;11.70;;;;;;;-2.39;66.14;100932.11;84687;1330;24229;-81
2022/03/07 05:27:29;;;;;;;21.10;12.50;;;;;;;-2.36;66.19;100928.25;84629;1329;22589;-81
2022/03/07 05:29:41;;;;;;;19.20;11.90;;;;;;;-2.34;66.23;100924.70;83990;1329;1002949;-81
2022/03/07 05:31:50;;;;;;;19.60;10.60;;;;;;;-2.31;66.19;100925.64;84608;1329;24249;-81
2022/03/07 05:33:59;;;;;;;17.80;10.60;;;;;;;-2.28;66.34;100923.30;84594;1330;22666;-81
2022/03/07 05:36:09;;;;;;;18.00;11.80;;;;;;;-2.24;66.45;100920.48;84625;1329;23027;-72
2022/03/07 05:38:21;;;;;;;23.20;13.00;;;;;;;-2.20;66.45;100926.05;84681;1332;22902;-72
2022/03/07 05:40:30;;;;;;;23.10;11.90;;;;;;;-2.19;66.58;100923.18;84632;1330;22594;-73
2022/03/07 05:42:39;;;;;;;22.50;12.80;;;;;;;-2.17;66.49;100926.48;84662;1329;22597;-73
2022/03/07 05:44:49;;;;;;;21.30;12.70;;;;;;;-2.14;66.58;100926.86;84011;1321;1003130;-74
2022/03/07 05:46:59;;;;;;;25.20;14.30;;;;;;;-2.15;66.73;100929.26;84579;1328;23890;-72
2022/03/07 05:49:18;;;;;;;24.20;13.60;;;;;;;-2.15;66.83;100927.38;84631;1330;23929;-71
2022/03/07 05:51:27;;;;;;;24.60;14.10;;;;;;;-2.11;66.95;100924.55;84600;1330;22591;-72
2022/03/07 05:53:36;;;;;;;28.70;15.30;;;;;;;-2.08;66.79;100923.08;84580;1330;25573;-73
2022/03/07 05:55:45;;;;;;;28.90;17.00;;;;;;;-2.01;66.97;100925.46;84627;1330;26654;-72
2022/03/07 05:58:00;;;;;;;28.80;16.90;;;;;;;-1.91;66.93;100926.67;84601;1330;22584;-73
2022/03/07 06:00:11;;;;;;;31.50;16.40;;;;;;;-1.71;66.98;100929.33;83885;1329;1003614;-73
2022/03/07 06:02:22;;;;;;;26.00;16.70;;;;;;;-1.41;67.25;100925.68;84550;1333;22583;-73
2022/03/07 06:04:31;;;;;;;28.60;17.30;;;;;;;-0.74;67.92;100922.25;84646;1328;22736;-74
2022/03/07 06:06:41;;;;;;;31.70;15.40;;;;;;;0.19;68.42;100915.91;84580;1329;25255;-75
2022/03/07 06:08:50;;;;;;;29.50;17.20;;;;;;;1.31;67.32;100911.09;84577;1321;22603;-76
2022/03/07 06:10:59;;;;;;;27.90;14.70;;;;;;;2.42;65.80;100908.00;84698;1330;22847;-74
2022/03/07 06:13:08;;;;;;;36.70;17.50;;;;;;;3.38;63.09;100905.24;84689;1325;22593;-71
2022/03/07 06:15:18;;;;;;;36.00;17.00;;;;;;;4.00;60.25;100908.64;84703;1330;22615;-84
2022/03/07 06:17:27;;;;;;;34.60;15.80;;;;;;;4.02;58.31;100909.66;84596;1330;24427;-82
2022/03/07 06:19:37;;;;;;;32.70;14.70;;;;;;;3.65;57.24;100914.38;84700;1329;25290;-82
2022/03/07 06:21:49;;;;;;;25.00;12.40;;;;;;;3.26;57.02;100914.21;84688;1329;22800;-83
2022/03/07 06:23:59;;;;;;;19.50;11.80;;;;;;;3.36;57.27;100914.73;84606;1330;22851;-82
2022/03/07 06:26:10;;;;;;;16.30;11.30;;;;;;;4.04;57.03;100915.52;84590;1325;24382;-75
2022/03/07 06:28:20;;;;;;;18.30;10.60;;;;;;;4.59;56.04;100908.92;84663;1328;22587;-81
2022/03/07 06:30:33;;;;;;;17.50;10.00;;;;;;;5.08;55.96;100905.36;84633;1333;22599;-81
2022/03/07 06:32:42;;;;;;;16.80;9.60;;;;;;;5.74;56.03;100908.27;84606;1329;22901;-76
2022/03/07 06:34:52;;;;;;;17.80;10.70;;;;;;;6.50;53.95;100909.20;84695;1328;24078;-82
2022/03/07 06:37:01;;;;;;;13.20;10.10;;;;;;;6.47;52.37;100912.35;84609;1330;22839;-82
2022/03/07 06:39:16;;;;;;;15.40;9.70;;;;;;;6.11;51.75;100916.41;84670;1328;25249;-82
2022/03/07 06:41:26;;;;;;;15.50;9.50;;;;;;;5.65;51.07;100917.36;84659;1328;22632;-82
2022/03/07 06:43:37;;;;;;;16.10;9.20;;;;;;;5.16;51.49;100917.73;84612;1329;22695;-81
2022/03/07 06:45:46;;;;;;;13.00;8.70;;;;;;;4.75;51.98;100914.73;84683;1329;22902;-74
2022/03/07 06:47:55;;;;;;;15.40;9.30;;;;;;;4.46;52.52;100919.70;84596;1329;24098;-74
2022/03/07 06:50:06;;;;;;;15.00;8.80;;;;;;;4.14;52.73;100924.13;84619;1330;23926;-78
2022/03/07 06:52:17;;;;;;;16.90;9.50;;;;;;;3.84;53.21;100928.34;84605;1330;24349;-75
2022/03/07 06:54:26;;;;;;;16.60;8.80;;;;;;;3.57;53.84;100925.95;84577;1329;22590;-87
2022/03/07 06:56:36;;;;;;;14.90;9.10;;;;;;;3.31;54.17;100929.58;84576;1327;22969;-86
2022/03/07 06:58:49;;;;;;;16.10;9.60;;;;;;;3.14;54.74;100935.94;84579;1330;22600;-86
2022/03/07 07:00:59;;;;;;;13.00;9.50;;;;;;;3.02;55.43;100936.09;84671;1326;22659;-75
2022/03/07 07:03:08;;;;;;;13.10;9.50;;;;;;;2.95;55.73;100941.58;84659;1329;22603;-74
2022/03/07 07:05:18;;;;;;;16.90;8.60;;;;;;;2.92;56.16;100942.79;84682;1324;22688;-75
2022/03/07 07:07:28;;;;;;;16.20;9.80;;;;;;;2.91;56.45;100945.71;84651;1328;25442;-75
2022/03/07 07:09:38;;;;;;;12.50;8.90;;;;;;;2.87;56.59;100948.45;84637;1330;25455;-74
2022/03/07 07:11:50;;;;;;;14.40;8.80;;;;;;;2.85;56.94;100941.73;84574;1330;22729;-74
2022/03/07 07:14:00;;;;;;;17.80;9.80;;;;;;;2.92;57.23;100939.52;84690;1328;24379;-75
2022/03/07 07:16:13;;;;;;;14.00;9.50;;;;;;;3.13;57.97;100935.42;84624;1329;22598;-75
2022/03/07 07:18:22;;;;;;;17.70;9.30;;;;;;;3.58;57.97;100935.27;83889;1330;1003057;-83
2022/03/07 07:20:36;;;;;;;14.10;9.50;;;;;;;4.23;57.50;100936.54;84704;1325;22844;-84
2022/03/07 07:22:45;;;;;;;15.40;10.70;;;;;;;4.66;56.36;100932.39;84650;1330;25545;-82
2022/03/07 07:24:54;;;;;;;16.80;8.80;;;;;;;5.16;55.22;100929.33;84603;1325;22613;-85
2022/03/07 07:27:04;;;;;;;15.50;8.80;;;;;;;5.74;55.10;100929.75;84652;1329;22877;-85
2022/03/07 07:29:13;;;;;;;14.00;8.30;;;;;;;6.22;55.24;100930.50;84699;1325;22721;-80
2022/03/07 07:31:23;;;;;;;15.90;10.00;;;;;;;6.82;54.33;100923.52;84610;1329;23149;-85
2022/03/07 07:33:32;;;;;;;13.20;7.60;;;;;;;7.42;52.97;100920.02;84653;1328;22581;-86
2022/03/07 07:35:42;;;;;;;14.40;8.50;;;;;;;8.19;51.29;100920.02;84624;1330;25307;-84
2022/03/07 07:37:51;;;;;;;11.00;7.70;;;;;;;8.75;48.24;100919.41;84602;1330;22584;-83
2022/03/07 07:39:59;;;;;;;12.60;8.30;;;;;;;9.27;47.62;100922.95;84596;1330;22850;-82
2022/03/07 07:42:06;;;;;;;15.20;7.70;;;;;;;9.81;45.93;100924.73;84605;1329;25234;-81
2022/03/07 07:44:12;;;;;;;13.10;7.80;;;;;;;10.32;44.84;100922.66;84603;1329;25319;-80
2022/03/07 07:46:20;;;;;;;12.00;7.80;;;;;;;10.91;43.85;100913.45;84665;1324;22675;-81
2022/03/07 07:48:36;;;;;;;10.40;7.10;;;;;;;11.50;42.16;100918.19;84583;1330;24411;-81
2022/03/07 07:50:48;;;;;;;14.20;8.00;;;;;;;11.95;41.12;100916.20;84623;1333;24419;-80
2022/03/07 07:52:57;;;;;;;9.80;6.70;;;;;;;11.63;40.61;100918.82;85601;1314;22610;-74
2022/03/07 07:55:06;;;;;;;8.70;6.50;;;;;;;11.81;40.16;100919.10;84663;1329;22856;-74
2022/03/07 07:57:13;;;;;;;11.10;7.50;;;;;;;11.92;39.69;100917.70;84629;1329;23968;-74
2022/03/07 07:59:19;;;;;;;9.20;6.40;;;;;;;12.32;40.01;100917.30;84690;1329;23802;-75
2022/03/07 08:01:26;;;;;;;9.10;6.50;;;;;;;13.13;38.71;100915.41;84646;1327;22679;-73
2022/03/07 08:03:32;;;;;;;12.90;6.80;;;;;;;13.20;37.51;100914.99;84639;1331;22587;-79
2022/03/07 08:05:39;;;;;;;9.10;6.10;;;;;;;13.45;38.05;100912.93;84643;1321;22604;-80
2022/03/07 08:07:46;;;;;;;8.20;6.70;;;;;;;13.67;36.74;100910.63;84624;1333;22623;-74
2022/03/07 08:09:53;;;;;;;12.10;6.90;;;;;;;13.16;36.22;100910.42;84637;1330;24020;-74
2022/03/07 08:12:03;;;;;;;11.60;6.70;;;;;;;12.54;36.73;100912.11;84645;1329;23530;-75
2022/03/07 08:14:12;;;;;;;12.40;6.30;;;;;;;11.96;36.59;100910.72;84657;1331;22593;-81
2022/03/07 08:16:20;;;;;;;6.80;5.80;;;;;;;11.28;37.38;100909.14;84631;1330;23930;-82
2022/03/07 08:18:27;;;;;;;10.30;5.90;;;;;;;10.70;38.31;100914.23;85672;1312;22580;-84
2022/03/07 08:20:33;;;;;;;9.70;5.50;;;;;;;10.93;39.77;100916.38;84678;1330;22614;-83
2022/03/07 08:22:39;;;;;;;10.50;5.10;;;;;;;11.53;39.59;100910.07;84697;1327;22594;-83
2022/03/07 08:24:46;;;;;;;8.50;5.40;;;;;;;12.28;38.62;100910.29;84697;1330;25536;-74
2022/03/07 08:26:53;;;;;;;9.50;6.50;;;;;;;13.01;37.72;100902.27;84704;1328;22587;-74
2022/03/07 08:29:00;;;;;;;8.50;6.20;;;;;;;13.73;36.34;100905.45;84710;1329;22583;-74
2022/03/07 08:31:06;;;;;;;7.50;5.10;;;;;;;14.35;35.65;100897.48;84716;1329;26576;-74
2022/03/07 08:33:16;;;;;;;9.10;6.10;;;;;;;14.77;34.54;100893.98;84702;1327;22922;-81
2022/03/07 08:35:27;;;;;;;9.40;5.90;;;;;;;15.21;34.08;100895.05;84717;1327;23942;-81
2022/03/07 08:37:36;;;;;;;7.30;5.60;;;;;;;15.20;33.46;100894.04;84705;1328;24330;-82
2022/03/07 08:39:46;;;;;;;9.00;4.90;;;;;;;14.67;33.00;100900.06;84674;1329;24196;-82
2022/03/07 08:41:52;;;;;;;6.80;5.30;;;;;;;14.12;33.45;100901.85;84721;1330;22630;-82
2022/03/07 08:43:59;;;;;;;6.50;5.30;;;;;;;13.58;33.65;100900.30;84706;1330;22589;-73
2022/03/07 08:46:05;;;;;;;7.80;5.00;;;;;;;13.06;34.07;100898.89;84682;1330;22697;-74
2022/03/07 08:48:12;;;;;;;7.70;4.50;;;;;;;12.72;35.38;100896.55;84735;1328;24174;-80
2022/03/07 08:50:19;;;;;;;6.00;4.50;;;;;;;12.83;35.35;100897.35;84705;1327;22684;-81
2022/03/07 08:52:25;;;;;;;6.60;4.00;;;;;;;12.83;35.15;100896.81;84710;1325;22636;-83
2022/03/07 08:54:32;;;;;;;6.80;4.00;;;;;;;12.49;34.99;100898.15;84725;1327;22587;-75
2022/03/07 08:56:38;;;;;;;6.70;4.50;;;;;;;12.07;35.33;100898.10;84727;1330;23921;-74
2022/03/07 08:58:45;;;;;;;8.60;4.00;;;;;;;11.53;35.72;100900.66;84712;1327;24274;-82
2022/03/07 09:00:51;;;;;;;6.40;4.80;;;;;;;11.06;36.79;100897.97;84695;1325;22781;-82
2022/03/07 09:02:59;;;;;;;6.90;4.60;;;;;;;10.73;37.55;100899.52;84696;1327;22583;-79
2022/03/07 09:05:07;;;;;;;6.40;4.90;;;;;;;10.43;38.23;100899.17;84717;1326;25299;-74
2022/03/07 09:07:13;;;;;;;7.20;4.80;;;;;;;10.14;38.60;100900.52;84724;1327;24231;-74
2022/03/07 09:09:20;;;;;;;8.30;5.40;;;;;;;9.87;39.08;100897.23;84702;1330;22599;-74
2022/03/07 09:11:30;;;;;;;8.20;4.00;;;;;;;9.53;39.24;100900.02;84729;1328;22612;-73
2022/03/07 09:13:38;;;;;;;;;;;;;;;9.18;39.68;100896.01;84700;1330;22808;-82
2022/03/07 09:15:45;;;;;;;4.90;4.00;;;;;;;8.80;40.35;100891.30;84717;1327;23860;-83
2022/03/07 09:17:58;;;;;;;9.90;5.00;;;;;;;8.51;41.01;100891.77;84728;1324;22616;-85
2022/03/07 09:20:07;;;;;;;7.60;4.40;;;;;;;8.22;41.42;100899.10;84676;1330;23926;-84
2022/03/07 09:22:16;;;;;;;7.20;4.60;;;;;;;8.01;42.14;100899.17;84706;1329;22594;-83
2022/03/07 09:24:23;;;;;;;8.50;5.20;;;;;;;7.81;42.38;100891.39;84714;1327;22717;-74
2022/03/07 09:26:33;;;;;;;9.00;5.50;;;;;;;7.65;42.99;100889.06;84716;1327;24104;-74
2022/03/07 09:28:40;;;;;;;6.50;4.70;;;;;;;7.55;43.44;100886.46;84666;1329;22646;-74
2022/03/07 09:30:49;;;;;;;12.00;5.40;;;;;;;7.44;43.60;100889.59;84701;1327;22624;-73
2022/03/07 09:33:05;;;;;;;9.40;5.50;;;;;;;7.31;43.76;100887.39;84702;1327;22756;-83
2022/03/07 09:35:16;;;;;;;8.50;5.40;;;;;;;7.16;44.23;100885.70;84711;1328;22602;-74
2022/03/07 09:37:23;;;;;;;8.00;4.90;;;;;;;7.08;44.69;100884.10;84679;1327;25294;-74
2022/03/07 09:39:33;;;;;;;7.80;5.10;;;;;;;7.12;44.94;100885.25;84684;1327;26590;-74
2022/03/07 09:41:41;;;;;;;9.60;5.40;;;;;;;7.07;44.87;100885.67;84710;1327;22584;-74
2022/03/07 09:43:49;;;;;;;11.70;6.00;;;;;;;6.95;45.08;100887.25;84672;1330;22577;-84
2022/03/07 09:45:55;;;;;;;9.20;6.00;;;;;;;6.86;45.37;100887.88;84700;1328;22651;-79
2022/03/07 09:48:02;;;;;;;10.20;4.90;;;;;;;6.82;45.65;100883.63;84700;1321;22576;-75
2022/03/07 09:50:10;;;;;;;8.90;5.20;;;;;;;6.76;45.57;100882.66;84690;1327;22661;-74
2022/03/07 09:52:18;;;;;;;10.10;4.90;;;;;;;6.65;45.67;100883.17;84029;1332;702744;-73
2022/03/07 09:54:25;;;;;;;11.90;5.10;;;;;;;6.59;45.90;100887.41;84692;1328;24004;-75
2022/03/07 09:56:34;;;;;;;10.30;5.60;;;;;;;6.59;46.22;100892.77;84660;1325;22858;-76